sensor_id;sensor_type;location;lat;lon;timestamp;temperature;humidity
20498;DHT22;10407;53.238;10.448;2023-02-13T00:00:37;8.30;99.90
20498;DHT22;10407;53.238;10.448;2023-02-13T00:03:05;8.30;99.90
20498;DHT22;10407;53.238;10.448;2023-02-13T00:05:32;8.40;99.90
20498;DHT22;10407;53.238;10.448;2023-02-13T00:08:00;8.30;99.90
20498;DHT22;10407;53.238;10.448;2023-02-13T00:10:27;8.30;99.90
20498;DHT22;10407;53.238;10.448;2023-02-13T00:12:55;8.30;99.90
20498;DHT22;10407;53.238;10.448;2023-02-13T00:15:22;8.30;99.90
20498;DHT22;10407;53.238;10.448;2023-02-13T00:17:50;8.30;99.90
20498;DHT22;10407;53.238;10.448;2023-02-13T00:20:17;8.30;99.90
20498;DHT22;10407;53.238;10.448;2023-02-13T00:22:45;8.30;99.90
20498;DHT22;10407;53.238;10.448;2023-02-13T00:25:13;8.20;99.90
20498;DHT22;10407;53.238;10.448;2023-02-13T00:27:40;8.20;99.90
20498;DHT22;10407;53.238;10.448;2023-02-13T00:30:08;8.10;99.90
20498;DHT22;10407;53.238;10.448;2023-02-13T00:32:36;8.10;99.90
20498;DHT22;10407;53.238;10.448;2023-02-13T00:35:03;8.10;99.90
20498;DHT22;10407;53.238;10.448;2023-02-13T00:37:32;8.20;99.90
20498;DHT22;10407;53.238;10.448;2023-02-13T00:40:00;8.30;99.90
20498;DHT22;10407;53.238;10.448;2023-02-13T00:42:27;8.30;99.90
20498;DHT22;10407;53.238;10.448;2023-02-13T00:44:55;8.30;99.90
20498;DHT22;10407;53.238;10.448;2023-02-13T00:47:22;8.30;99.90
20498;DHT22;10407;53.238;10.448;2023-02-13T00:49:50;8.30;99.90
20498;DHT22;10407;53.238;10.448;2023-02-13T00:52:17;8.30;99.90
20498;DHT22;10407;53.238;10.448;2023-02-13T00:54:45;8.30;99.90
20498;DHT22;10407;53.238;10.448;2023-02-13T00:57:13;8.30;99.90
20498;DHT22;10407;53.238;10.448;2023-02-13T00:59:40;8.30;99.90
20498;DHT22;10407;53.238;10.448;2023-02-13T01:02:08;8.30;99.90
20498;DHT22;10407;53.238;10.448;2023-02-13T01:04:35;8.30;99.90
20498;DHT22;10407;53.238;10.448;2023-02-13T01:07:03;8.20;99.90
20498;DHT22;10407;53.238;10.448;2023-02-13T01:09:30;8.20;99.90
20498;DHT22;10407;53.238;10.448;2023-02-13T01:11:58;8.20;99.90
20498;DHT22;10407;53.238;10.448;2023-02-13T01:14:25;8.20;99.90
20498;DHT22;10407;53.238;10.448;2023-02-13T01:16:54;8.20;99.90
20498;DHT22;10407;53.238;10.448;2023-02-13T01:19:22;8.30;99.90
20498;DHT22;10407;53.238;10.448;2023-02-13T01:21:49;8.30;99.90
20498;DHT22;10407;53.238;10.448;2023-02-13T01:24:17;8.30;99.90
20498;DHT22;10407;53.238;10.448;2023-02-13T01:26:45;8.20;99.90
20498;DHT22;10407;53.238;10.448;2023-02-13T01:29:13;8.20;99.90
20498;DHT22;10407;53.238;10.448;2023-02-13T01:31:40;8.20;99.90
20498;DHT22;10407;53.238;10.448;2023-02-13T01:34:08;8.20;99.90
20498;DHT22;10407;53.238;10.448;2023-02-13T01:36:35;8.20;99.90
20498;DHT22;10407;53.238;10.448;2023-02-13T01:39:03;8.20;99.90
20498;DHT22;10407;53.238;10.448;2023-02-13T01:41:31;8.30;99.90
20498;DHT22;10407;53.238;10.448;2023-02-13T01:43:59;8.20;99.90
20498;DHT22;10407;53.238;10.448;2023-02-13T01:46:34;8.30;99.90
20498;DHT22;10407;53.238;10.448;2023-02-13T01:49:14;8.30;99.90
20498;DHT22;10407;53.238;10.448;2023-02-13T01:51:40;8.20;99.90
20498;DHT22;10407;53.238;10.448;2023-02-13T01:54:14;8.10;99.90
20498;DHT22;10407;53.238;10.448;2023-02-13T01:56:51;8.20;99.90
20498;DHT22;10407;53.238;10.448;2023-02-13T01:59:23;8.20;99.90
20498;DHT22;10407;53.238;10.448;2023-02-13T02:01:49;8.20;99.90
20498;DHT22;10407;53.238;10.448;2023-02-13T02:04:23;8.20;99.90
20498;DHT22;10407;53.238;10.448;2023-02-13T02:06:56;8.20;99.90
20498;DHT22;10407;53.238;10.448;2023-02-13T02:09:26;8.20;99.90
20498;DHT22;10407;53.238;10.448;2023-02-13T02:12:08;8.20;99.90
20498;DHT22;10407;53.238;10.448;2023-02-13T02:14:35;8.20;99.90
20498;DHT22;10407;53.238;10.448;2023-02-13T02:17:03;8.20;99.90
20498;DHT22;10407;53.238;10.448;2023-02-13T02:19:43;8.10;99.90
20498;DHT22;10407;53.238;10.448;2023-02-13T02:25:22;8.20;99.90
20498;DHT22;10407;53.238;10.448;2023-02-13T02:28:10;8.20;99.90
20498;DHT22;10407;53.238;10.448;2023-02-13T02:30:51;8.20;99.90
20498;DHT22;10407;53.238;10.448;2023-02-13T02:33:30;8.10;99.90
20498;DHT22;10407;53.238;10.448;2023-02-13T02:52:53;8.10;99.90
20498;DHT22;10407;53.238;10.448;2023-02-13T02:58:23;8.10;99.90
20498;DHT22;10407;53.238;10.448;2023-02-13T03:01:11;8.10;99.90
20498;DHT22;10407;53.238;10.448;2023-02-13T03:03:58;8.10;99.90
20498;DHT22;10407;53.238;10.448;2023-02-13T03:06:47;8.10;99.90
20498;DHT22;10407;53.238;10.448;2023-02-13T03:09:20;8.10;99.90
20498;DHT22;10407;53.238;10.448;2023-02-13T03:12:03;8.10;99.90
20498;DHT22;10407;53.238;10.448;2023-02-13T03:14:49;8.10;99.90
20498;DHT22;10407;53.238;10.448;2023-02-13T03:17:18;8.00;99.90
20498;DHT22;10407;53.238;10.448;2023-02-13T03:20:13;8.10;99.90
20498;DHT22;10407;53.238;10.448;2023-02-13T03:28:35;8.10;99.90
20498;DHT22;10407;53.238;10.448;2023-02-13T03:31:41;8.10;99.90
20498;DHT22;10407;53.238;10.448;2023-02-13T03:34:09;8.10;99.90
20498;DHT22;10407;53.238;10.448;2023-02-13T03:42:44;8.10;99.90
20498;DHT22;10407;53.238;10.448;2023-02-13T03:45:28;8.20;99.90
20498;DHT22;10407;53.238;10.448;2023-02-13T03:48:17;8.10;99.90
20498;DHT22;10407;53.238;10.448;2023-02-13T03:51:04;8.20;99.90
20498;DHT22;10407;53.238;10.448;2023-02-13T03:53:34;8.20;99.90
20498;DHT22;10407;53.238;10.448;2023-02-13T03:56:04;8.10;99.90
20498;DHT22;10407;53.238;10.448;2023-02-13T03:58:53;8.00;99.90
20498;DHT22;10407;53.238;10.448;2023-02-13T04:01:44;8.10;99.90
20498;DHT22;10407;53.238;10.448;2023-02-13T04:04:20;8.00;99.90
20498;DHT22;10407;53.238;10.448;2023-02-13T04:07:06;8.00;99.90
20498;DHT22;10407;53.238;10.448;2023-02-13T04:09:40;8.00;99.90
20498;DHT22;10407;53.238;10.448;2023-02-13T04:12:16;8.10;99.90
20498;DHT22;10407;53.238;10.448;2023-02-13T04:14:59;8.00;99.90
20498;DHT22;10407;53.238;10.448;2023-02-13T04:17:35;8.00;99.90
20498;DHT22;10407;53.238;10.448;2023-02-13T04:20:03;8.00;99.90
20498;DHT22;10407;53.238;10.448;2023-02-13T04:22:31;8.00;99.90
20498;DHT22;10407;53.238;10.448;2023-02-13T04:25:00;8.00;99.90
20498;DHT22;10407;53.238;10.448;2023-02-13T04:27:28;8.00;99.90
20498;DHT22;10407;53.238;10.448;2023-02-13T04:29:55;8.00;99.90
20498;DHT22;10407;53.238;10.448;2023-02-13T04:32:23;8.00;99.90
20498;DHT22;10407;53.238;10.448;2023-02-13T04:34:50;7.90;99.90
20498;DHT22;10407;53.238;10.448;2023-02-13T04:37:17;8.00;99.90
20498;DHT22;10407;53.238;10.448;2023-02-13T04:39:45;8.00;99.90
20498;DHT22;10407;53.238;10.448;2023-02-13T04:42:12;7.90;99.90
20498;DHT22;10407;53.238;10.448;2023-02-13T04:44:40;7.90;99.90
20498;DHT22;10407;53.238;10.448;2023-02-13T04:47:07;7.80;99.90
20498;DHT22;10407;53.238;10.448;2023-02-13T04:49:35;7.80;99.90
20498;DHT22;10407;53.238;10.448;2023-02-13T04:52:02;7.80;99.90
20498;DHT22;10407;53.238;10.448;2023-02-13T04:54:30;7.80;99.90
20498;DHT22;10407;53.238;10.448;2023-02-13T04:56:58;7.80;99.90
20498;DHT22;10407;53.238;10.448;2023-02-13T04:59:25;7.90;99.90
20498;DHT22;10407;53.238;10.448;2023-02-13T05:01:52;7.80;99.90
20498;DHT22;10407;53.238;10.448;2023-02-13T05:04:20;7.80;99.90
20498;DHT22;10407;53.238;10.448;2023-02-13T05:06:48;7.70;99.90
20498;DHT22;10407;53.238;10.448;2023-02-13T05:09:15;7.90;99.90
20498;DHT22;10407;53.238;10.448;2023-02-13T05:11:43;7.80;99.90
20498;DHT22;10407;53.238;10.448;2023-02-13T05:14:10;7.70;99.90
20498;DHT22;10407;53.238;10.448;2023-02-13T05:16:38;7.80;99.90
20498;DHT22;10407;53.238;10.448;2023-02-13T05:19:05;7.90;99.90
20498;DHT22;10407;53.238;10.448;2023-02-13T05:21:33;7.80;99.90
20498;DHT22;10407;53.238;10.448;2023-02-13T05:24:18;7.90;99.90
20498;DHT22;10407;53.238;10.448;2023-02-13T05:26:46;7.70;99.90
20498;DHT22;10407;53.238;10.448;2023-02-13T05:29:14;7.70;99.90
20498;DHT22;10407;53.238;10.448;2023-02-13T05:31:46;7.80;99.90
20498;DHT22;10407;53.238;10.448;2023-02-13T05:34:14;7.80;99.90
20498;DHT22;10407;53.238;10.448;2023-02-13T05:36:42;7.70;99.90
20498;DHT22;10407;53.238;10.448;2023-02-13T05:39:09;7.70;99.90
20498;DHT22;10407;53.238;10.448;2023-02-13T05:41:37;7.70;99.90
20498;DHT22;10407;53.238;10.448;2023-02-13T05:44:04;7.80;99.90
20498;DHT22;10407;53.238;10.448;2023-02-13T05:46:32;7.70;99.90
20498;DHT22;10407;53.238;10.448;2023-02-13T05:48:59;7.60;99.90
20498;DHT22;10407;53.238;10.448;2023-02-13T05:51:27;7.70;99.90
20498;DHT22;10407;53.238;10.448;2023-02-13T05:53:54;7.70;99.90
20498;DHT22;10407;53.238;10.448;2023-02-13T05:56:22;7.50;99.90
20498;DHT22;10407;53.238;10.448;2023-02-13T05:58:56;7.50;99.90
20498;DHT22;10407;53.238;10.448;2023-02-13T06:01:24;7.70;99.90
20498;DHT22;10407;53.238;10.448;2023-02-13T06:03:51;7.60;99.90
20498;DHT22;10407;53.238;10.448;2023-02-13T06:06:19;7.60;99.90
20498;DHT22;10407;53.238;10.448;2023-02-13T06:08:48;7.50;99.90
20498;DHT22;10407;53.238;10.448;2023-02-13T06:11:15;7.40;99.90
20498;DHT22;10407;53.238;10.448;2023-02-13T06:13:43;7.20;99.90
20498;DHT22;10407;53.238;10.448;2023-02-13T06:16:11;7.40;99.90
20498;DHT22;10407;53.238;10.448;2023-02-13T06:18:39;7.50;99.90
20498;DHT22;10407;53.238;10.448;2023-02-13T06:21:07;7.50;99.90
20498;DHT22;10407;53.238;10.448;2023-02-13T06:23:35;7.50;99.90
20498;DHT22;10407;53.238;10.448;2023-02-13T06:26:05;7.30;99.90
20498;DHT22;10407;53.238;10.448;2023-02-13T06:28:33;7.30;99.90
20498;DHT22;10407;53.238;10.448;2023-02-13T06:31:00;7.30;99.90
20498;DHT22;10407;53.238;10.448;2023-02-13T06:33:28;7.50;99.90
20498;DHT22;10407;53.238;10.448;2023-02-13T06:35:56;7.50;99.90
20498;DHT22;10407;53.238;10.448;2023-02-13T06:38:23;7.50;99.90
20498;DHT22;10407;53.238;10.448;2023-02-13T06:40:51;7.50;99.90
20498;DHT22;10407;53.238;10.448;2023-02-13T06:43:19;7.50;99.90
20498;DHT22;10407;53.238;10.448;2023-02-13T06:45:46;7.40;99.90
20498;DHT22;10407;53.238;10.448;2023-02-13T06:48:14;7.40;99.90
20498;DHT22;10407;53.238;10.448;2023-02-13T06:50:41;7.50;99.90
20498;DHT22;10407;53.238;10.448;2023-02-13T06:53:09;7.50;99.90
20498;DHT22;10407;53.238;10.448;2023-02-13T06:55:36;7.50;99.90
20498;DHT22;10407;53.238;10.448;2023-02-13T06:58:05;7.50;99.90
20498;DHT22;10407;53.238;10.448;2023-02-13T07:00:33;7.50;99.90
20498;DHT22;10407;53.238;10.448;2023-02-13T07:03:02;7.60;99.90
20498;DHT22;10407;53.238;10.448;2023-02-13T07:05:31;7.60;99.90
20498;DHT22;10407;53.238;10.448;2023-02-13T07:07:59;7.30;99.90
20498;DHT22;10407;53.238;10.448;2023-02-13T07:10:26;7.20;99.90
20498;DHT22;10407;53.238;10.448;2023-02-13T07:12:54;7.50;99.90
20498;DHT22;10407;53.238;10.448;2023-02-13T07:15:21;7.50;99.90
20498;DHT22;10407;53.238;10.448;2023-02-13T07:17:56;7.60;99.90
20498;DHT22;10407;53.238;10.448;2023-02-13T07:20:25;7.60;99.90
20498;DHT22;10407;53.238;10.448;2023-02-13T07:22:56;7.70;99.90
20498;DHT22;10407;53.238;10.448;2023-02-13T07:25:21;7.70;99.90
20498;DHT22;10407;53.238;10.448;2023-02-13T07:27:49;7.80;99.90
20498;DHT22;10407;53.238;10.448;2023-02-13T07:30:17;7.60;99.90
20498;DHT22;10407;53.238;10.448;2023-02-13T07:32:44;7.60;99.90
20498;DHT22;10407;53.238;10.448;2023-02-13T07:35:12;7.70;99.90
20498;DHT22;10407;53.238;10.448;2023-02-13T07:37:39;7.70;99.90
20498;DHT22;10407;53.238;10.448;2023-02-13T07:40:08;7.80;99.90
20498;DHT22;10407;53.238;10.448;2023-02-13T07:42:35;7.80;99.90
20498;DHT22;10407;53.238;10.448;2023-02-13T07:45:03;7.90;99.90
20498;DHT22;10407;53.238;10.448;2023-02-13T07:47:33;7.90;99.90
20498;DHT22;10407;53.238;10.448;2023-02-13T07:50:01;7.80;99.90
20498;DHT22;10407;53.238;10.448;2023-02-13T07:52:31;7.90;99.90
20498;DHT22;10407;53.238;10.448;2023-02-13T07:54:59;7.90;99.90
20498;DHT22;10407;53.238;10.448;2023-02-13T07:57:26;7.80;99.90
20498;DHT22;10407;53.238;10.448;2023-02-13T07:59:54;7.80;99.90
20498;DHT22;10407;53.238;10.448;2023-02-13T08:02:21;7.90;99.90
20498;DHT22;10407;53.238;10.448;2023-02-13T08:04:49;7.90;99.90
20498;DHT22;10407;53.238;10.448;2023-02-13T08:07:17;7.90;99.90
20498;DHT22;10407;53.238;10.448;2023-02-13T08:09:45;8.00;99.90
20498;DHT22;10407;53.238;10.448;2023-02-13T08:12:32;7.90;99.90
20498;DHT22;10407;53.238;10.448;2023-02-13T08:15:00;7.90;99.90
20498;DHT22;10407;53.238;10.448;2023-02-13T08:17:28;8.00;99.90
20498;DHT22;10407;53.238;10.448;2023-02-13T08:19:56;8.00;99.90
20498;DHT22;10407;53.238;10.448;2023-02-13T08:22:23;8.00;99.90
20498;DHT22;10407;53.238;10.448;2023-02-13T08:24:51;8.10;99.90
20498;DHT22;10407;53.238;10.448;2023-02-13T08:27:18;8.10;99.90
20498;DHT22;10407;53.238;10.448;2023-02-13T08:29:48;8.10;99.90
20498;DHT22;10407;53.238;10.448;2023-02-13T08:32:17;8.10;99.90
20498;DHT22;10407;53.238;10.448;2023-02-13T08:34:45;8.10;99.90
20498;DHT22;10407;53.238;10.448;2023-02-13T08:37:12;8.10;99.90
20498;DHT22;10407;53.238;10.448;2023-02-13T08:39:40;8.10;99.90
20498;DHT22;10407;53.238;10.448;2023-02-13T08:42:07;8.10;99.90
20498;DHT22;10407;53.238;10.448;2023-02-13T08:44:35;8.20;99.90
20498;DHT22;10407;53.238;10.448;2023-02-13T08:47:05;8.20;99.90
20498;DHT22;10407;53.238;10.448;2023-02-13T08:49:32;8.20;99.90
20498;DHT22;10407;53.238;10.448;2023-02-13T08:52:00;8.10;99.90
20498;DHT22;10407;53.238;10.448;2023-02-13T08:54:29;8.20;99.90
20498;DHT22;10407;53.238;10.448;2023-02-13T08:56:57;8.30;99.90
20498;DHT22;10407;53.238;10.448;2023-02-13T08:59:24;8.30;99.90
20498;DHT22;10407;53.238;10.448;2023-02-13T09:01:52;8.30;99.90
20498;DHT22;10407;53.238;10.448;2023-02-13T09:04:19;8.30;99.90
20498;DHT22;10407;53.238;10.448;2023-02-13T09:06:47;8.30;99.90
20498;DHT22;10407;53.238;10.448;2023-02-13T09:09:14;8.30;99.90
20498;DHT22;10407;53.238;10.448;2023-02-13T09:11:42;8.40;99.90
20498;DHT22;10407;53.238;10.448;2023-02-13T09:14:10;8.40;99.90
20498;DHT22;10407;53.238;10.448;2023-02-13T09:16:37;8.40;99.90
20498;DHT22;10407;53.238;10.448;2023-02-13T09:19:05;8.40;99.90
20498;DHT22;10407;53.238;10.448;2023-02-13T09:21:33;8.40;99.90
20498;DHT22;10407;53.238;10.448;2023-02-13T09:24:00;8.50;99.90
20498;DHT22;10407;53.238;10.448;2023-02-13T09:26:28;8.50;99.90
20498;DHT22;10407;53.238;10.448;2023-02-13T09:28:55;8.50;99.90
20498;DHT22;10407;53.238;10.448;2023-02-13T09:31:23;8.50;99.90
20498;DHT22;10407;53.238;10.448;2023-02-13T09:33:50;8.50;99.90
20498;DHT22;10407;53.238;10.448;2023-02-13T09:36:20;8.60;99.90
20498;DHT22;10407;53.238;10.448;2023-02-13T09:38:54;8.60;99.90
20498;DHT22;10407;53.238;10.448;2023-02-13T09:41:36;8.50;99.90
20498;DHT22;10407;53.238;10.448;2023-02-13T09:44:21;8.60;99.90
20498;DHT22;10407;53.238;10.448;2023-02-13T09:47:06;8.60;99.90
20498;DHT22;10407;53.238;10.448;2023-02-13T09:49:35;8.60;99.90
20498;DHT22;10407;53.238;10.448;2023-02-13T09:52:03;8.70;99.90
20498;DHT22;10407;53.238;10.448;2023-02-13T09:54:31;8.70;99.90
20498;DHT22;10407;53.238;10.448;2023-02-13T10:00:06;8.70;99.90
20498;DHT22;10407;53.238;10.448;2023-02-13T10:02:41;8.70;99.90
20498;DHT22;10407;53.238;10.448;2023-02-13T10:05:33;8.70;99.90
20498;DHT22;10407;53.238;10.448;2023-02-13T10:08:11;8.70;99.90
20498;DHT22;10407;53.238;10.448;2023-02-13T10:18:58;8.80;99.90
20498;DHT22;10407;53.238;10.448;2023-02-13T10:21:32;8.80;99.90
20498;DHT22;10407;53.238;10.448;2023-02-13T10:24:09;8.80;99.90
20498;DHT22;10407;53.238;10.448;2023-02-13T10:26:37;8.80;99.90
20498;DHT22;10407;53.238;10.448;2023-02-13T10:29:25;8.90;99.90
20498;DHT22;10407;53.238;10.448;2023-02-13T10:32:13;8.90;99.90
20498;DHT22;10407;53.238;10.448;2023-02-13T10:34:45;8.90;99.90
20498;DHT22;10407;53.238;10.448;2023-02-13T10:37:16;8.90;99.90
20498;DHT22;10407;53.238;10.448;2023-02-13T10:39:51;8.90;99.90
20498;DHT22;10407;53.238;10.448;2023-02-13T10:42:44;9.00;99.90
20498;DHT22;10407;53.238;10.448;2023-02-13T10:45:35;8.90;99.90
20498;DHT22;10407;53.238;10.448;2023-02-13T10:48:26;8.90;99.90
20498;DHT22;10407;53.238;10.448;2023-02-13T10:51:07;9.00;99.90
20498;DHT22;10407;53.238;10.448;2023-02-13T10:56:54;9.00;99.90
20498;DHT22;10407;53.238;10.448;2023-02-13T10:59:24;9.10;99.90
20498;DHT22;10407;53.238;10.448;2023-02-13T11:01:55;9.10;99.90
20498;DHT22;10407;53.238;10.448;2023-02-13T11:04:23;9.20;99.90
20498;DHT22;10407;53.238;10.448;2023-02-13T11:06:59;9.20;99.90
20498;DHT22;10407;53.238;10.448;2023-02-13T11:09:29;9.10;99.90
20498;DHT22;10407;53.238;10.448;2023-02-13T11:11:57;9.10;99.90
20498;DHT22;10407;53.238;10.448;2023-02-13T11:14:26;9.20;99.90
20498;DHT22;10407;53.238;10.448;2023-02-13T11:17:02;9.20;99.90
20498;DHT22;10407;53.238;10.448;2023-02-13T11:19:38;9.30;99.90
20498;DHT22;10407;53.238;10.448;2023-02-13T11:22:08;9.20;99.90
20498;DHT22;10407;53.238;10.448;2023-02-13T11:24:36;9.10;99.90
20498;DHT22;10407;53.238;10.448;2023-02-13T11:27:09;9.20;99.90
20498;DHT22;10407;53.238;10.448;2023-02-13T11:29:54;9.30;99.90
20498;DHT22;10407;53.238;10.448;2023-02-13T11:32:24;9.30;99.90
20498;DHT22;10407;53.238;10.448;2023-02-13T11:34:53;9.30;99.90
20498;DHT22;10407;53.238;10.448;2023-02-13T11:37:27;9.30;99.90
20498;DHT22;10407;53.238;10.448;2023-02-13T11:39:57;9.30;99.90
20498;DHT22;10407;53.238;10.448;2023-02-13T11:42:35;9.40;99.90
20498;DHT22;10407;53.238;10.448;2023-02-13T11:45:23;9.20;99.90
20498;DHT22;10407;53.238;10.448;2023-02-13T11:47:52;9.30;99.90
20498;DHT22;10407;53.238;10.448;2023-02-13T11:50:30;9.30;99.90
20498;DHT22;10407;53.238;10.448;2023-02-13T11:55:31;9.40;99.90
20498;DHT22;10407;53.238;10.448;2023-02-13T12:00:39;9.20;99.90
20498;DHT22;10407;53.238;10.448;2023-02-13T12:06:03;9.30;99.90
20498;DHT22;10407;53.238;10.448;2023-02-13T12:08:32;9.30;99.90
20498;DHT22;10407;53.238;10.448;2023-02-13T12:11:02;9.20;99.90
20498;DHT22;10407;53.238;10.448;2023-02-13T12:13:37;9.30;99.90
20498;DHT22;10407;53.238;10.448;2023-02-13T12:18:57;9.50;99.90
20498;DHT22;10407;53.238;10.448;2023-02-13T12:26:56;9.40;99.90
20498;DHT22;10407;53.238;10.448;2023-02-13T12:29:31;9.50;99.90
20498;DHT22;10407;53.238;10.448;2023-02-13T12:32:18;9.40;99.90
20498;DHT22;10407;53.238;10.448;2023-02-13T12:37:59;9.30;99.90
20498;DHT22;10407;53.238;10.448;2023-02-13T12:46:58;9.50;99.90
20498;DHT22;10407;53.238;10.448;2023-02-13T12:51:48;9.50;99.90
20498;DHT22;10407;53.238;10.448;2023-02-13T12:57:22;9.50;99.90
20498;DHT22;10407;53.238;10.448;2023-02-13T13:05:30;9.50;99.90
20498;DHT22;10407;53.238;10.448;2023-02-13T13:08:09;9.50;99.90
20498;DHT22;10407;53.238;10.448;2023-02-13T13:13:33;9.40;99.90
20498;DHT22;10407;53.238;10.448;2023-02-13T13:19:13;9.40;99.90
20498;DHT22;10407;53.238;10.448;2023-02-13T13:21:59;9.50;99.90
20498;DHT22;10407;53.238;10.448;2023-02-13T13:27:01;9.50;99.90
20498;DHT22;10407;53.238;10.448;2023-02-13T13:29:47;9.50;99.90
20498;DHT22;10407;53.238;10.448;2023-02-13T13:32:13;9.50;99.90
20498;DHT22;10407;53.238;10.448;2023-02-13T13:34:40;9.50;99.90
20498;DHT22;10407;53.238;10.448;2023-02-13T13:37:36;9.60;99.90
20498;DHT22;10407;53.238;10.448;2023-02-13T13:40:17;9.50;99.90
20498;DHT22;10407;53.238;10.448;2023-02-13T13:45:53;9.50;99.90
20498;DHT22;10407;53.238;10.448;2023-02-13T13:48:51;9.50;99.90
20498;DHT22;10407;53.238;10.448;2023-02-13T13:51:18;9.50;99.90
20498;DHT22;10407;53.238;10.448;2023-02-13T13:57:02;9.50;99.90
20498;DHT22;10407;53.238;10.448;2023-02-13T14:07:59;9.40;99.90
20498;DHT22;10407;53.238;10.448;2023-02-13T14:13:01;9.40;99.90
20498;DHT22;10407;53.238;10.448;2023-02-13T14:20:54;9.30;99.90
20498;DHT22;10407;53.238;10.448;2023-02-13T14:23:43;9.40;99.90
20498;DHT22;10407;53.238;10.448;2023-02-13T14:31:25;9.30;99.90
20498;DHT22;10407;53.238;10.448;2023-02-13T14:36:57;9.40;99.90
20498;DHT22;10407;53.238;10.448;2023-02-13T14:47:02;9.00;99.90
20498;DHT22;10407;53.238;10.448;2023-02-13T14:49:32;9.00;99.90
20498;DHT22;10407;53.238;10.448;2023-02-13T14:52:06;8.90;99.90
20498;DHT22;10407;53.238;10.448;2023-02-13T14:54:37;8.90;99.90
20498;DHT22;10407;53.238;10.448;2023-02-13T14:57:13;8.80;99.90
20498;DHT22;10407;53.238;10.448;2023-02-13T14:59:37;8.90;99.90
20498;DHT22;10407;53.238;10.448;2023-02-13T15:02:23;9.10;99.90
20498;DHT22;10407;53.238;10.448;2023-02-13T15:05:06;9.10;99.90
20498;DHT22;10407;53.238;10.448;2023-02-13T15:07:37;9.10;99.90
20498;DHT22;10407;53.238;10.448;2023-02-13T15:10:33;9.10;99.90
20498;DHT22;10407;53.238;10.448;2023-02-13T15:12:59;9.10;99.90
20498;DHT22;10407;53.238;10.448;2023-02-13T15:15:34;9.10;99.90
20498;DHT22;10407;53.238;10.448;2023-02-13T15:18:00;9.10;99.90
20498;DHT22;10407;53.238;10.448;2023-02-13T15:20:34;9.00;99.90
20498;DHT22;10407;53.238;10.448;2023-02-13T15:23:04;8.90;99.90
20498;DHT22;10407;53.238;10.448;2023-02-13T15:25:39;8.90;99.90
20498;DHT22;10407;53.238;10.448;2023-02-13T15:28:16;9.00;99.90
20498;DHT22;10407;53.238;10.448;2023-02-13T15:30:37;9.00;99.90
20498;DHT22;10407;53.238;10.448;2023-02-13T15:33:19;9.00;99.90
20498;DHT22;10407;53.238;10.448;2023-02-13T15:35:55;9.00;99.90
20498;DHT22;10407;53.238;10.448;2023-02-13T15:38:26;8.80;99.90
20498;DHT22;10407;53.238;10.448;2023-02-13T15:41:00;8.70;99.90
20498;DHT22;10407;53.238;10.448;2023-02-13T15:43:35;8.60;99.90
20498;DHT22;10407;53.238;10.448;2023-02-13T15:46:06;8.80;99.90
20498;DHT22;10407;53.238;10.448;2023-02-13T15:48:34;9.00;99.90
20498;DHT22;10407;53.238;10.448;2023-02-13T15:51:04;9.00;99.90
20498;DHT22;10407;53.238;10.448;2023-02-13T15:53:32;9.00;99.90
20498;DHT22;10407;53.238;10.448;2023-02-13T15:56:11;8.70;99.90
20498;DHT22;10407;53.238;10.448;2023-02-13T15:58:32;8.60;99.90
20498;DHT22;10407;53.238;10.448;2023-02-13T16:01:03;8.50;99.90
20498;DHT22;10407;53.238;10.448;2023-02-13T16:03:32;8.60;99.90
20498;DHT22;10407;53.238;10.448;2023-02-13T16:06:01;8.60;99.90
20498;DHT22;10407;53.238;10.448;2023-02-13T16:08:33;8.50;99.90
20498;DHT22;10407;53.238;10.448;2023-02-13T16:11:19;8.50;99.90
20498;DHT22;10407;53.238;10.448;2023-02-13T16:16:55;8.70;99.90
20498;DHT22;10407;53.238;10.448;2023-02-13T16:19:33;8.80;99.90
20498;DHT22;10407;53.238;10.448;2023-02-13T16:22:01;8.90;99.90
20498;DHT22;10407;53.238;10.448;2023-02-13T16:24:28;8.90;99.90
20498;DHT22;10407;53.238;10.448;2023-02-13T16:26:56;8.80;99.90
20498;DHT22;10407;53.238;10.448;2023-02-13T16:29:25;8.80;99.90
20498;DHT22;10407;53.238;10.448;2023-02-13T16:32:01;8.80;99.90
20498;DHT22;10407;53.238;10.448;2023-02-13T16:34:29;8.80;99.90
20498;DHT22;10407;53.238;10.448;2023-02-13T16:36:56;8.80;99.90
20498;DHT22;10407;53.238;10.448;2023-02-13T16:39:31;8.70;99.90
20498;DHT22;10407;53.238;10.448;2023-02-13T16:42:00;8.70;99.90
20498;DHT22;10407;53.238;10.448;2023-02-13T16:44:32;8.70;99.90
20498;DHT22;10407;53.238;10.448;2023-02-13T16:47:02;8.60;99.90
20498;DHT22;10407;53.238;10.448;2023-02-13T16:49:35;8.60;99.90
20498;DHT22;10407;53.238;10.448;2023-02-13T16:52:20;8.60;99.90
20498;DHT22;10407;53.238;10.448;2023-02-13T16:54:54;8.60;99.90
20498;DHT22;10407;53.238;10.448;2023-02-13T17:02:38;8.60;99.90
20498;DHT22;10407;53.238;10.448;2023-02-13T17:07:41;8.60;99.90
20498;DHT22;10407;53.238;10.448;2023-02-13T17:10:24;8.60;99.90
20498;DHT22;10407;53.238;10.448;2023-02-13T17:15:42;8.60;99.90
20498;DHT22;10407;53.238;10.448;2023-02-13T17:18:10;8.40;99.90
20498;DHT22;10407;53.238;10.448;2023-02-13T17:20:40;8.30;99.90
20498;DHT22;10407;53.238;10.448;2023-02-13T17:23:14;8.30;99.90
20498;DHT22;10407;53.238;10.448;2023-02-13T17:25:43;8.40;99.90
20498;DHT22;10407;53.238;10.448;2023-02-13T17:30:43;8.40;99.90
20498;DHT22;10407;53.238;10.448;2023-02-13T17:33:14;8.10;99.90
20498;DHT22;10407;53.238;10.448;2023-02-13T17:35:42;8.00;99.90
20498;DHT22;10407;53.238;10.448;2023-02-13T17:38:09;8.10;99.90
20498;DHT22;10407;53.238;10.448;2023-02-13T17:40:37;8.30;99.90
20498;DHT22;10407;53.238;10.448;2023-02-13T17:43:08;8.30;99.90
20498;DHT22;10407;53.238;10.448;2023-02-13T17:45:36;8.30;99.90
20498;DHT22;10407;53.238;10.448;2023-02-13T17:48:04;8.40;99.90
20498;DHT22;10407;53.238;10.448;2023-02-13T17:50:32;8.40;99.90
20498;DHT22;10407;53.238;10.448;2023-02-13T17:53:03;8.40;99.90
20498;DHT22;10407;53.238;10.448;2023-02-13T17:55:32;8.40;99.90
20498;DHT22;10407;53.238;10.448;2023-02-13T17:58:00;8.30;99.90
20498;DHT22;10407;53.238;10.448;2023-02-13T18:00:31;8.40;99.90
20498;DHT22;10407;53.238;10.448;2023-02-13T18:03:00;8.30;99.90
20498;DHT22;10407;53.238;10.448;2023-02-13T18:05:27;8.30;99.90
20498;DHT22;10407;53.238;10.448;2023-02-13T18:07:56;8.30;99.90
20498;DHT22;10407;53.238;10.448;2023-02-13T18:10:26;8.30;99.90
20498;DHT22;10407;53.238;10.448;2023-02-13T18:12:55;8.40;99.90
20498;DHT22;10407;53.238;10.448;2023-02-13T18:15:25;8.40;99.90
20498;DHT22;10407;53.238;10.448;2023-02-13T18:17:52;8.40;99.90
20498;DHT22;10407;53.238;10.448;2023-02-13T18:20:20;8.40;99.90
20498;DHT22;10407;53.238;10.448;2023-02-13T18:22:48;8.40;99.90
20498;DHT22;10407;53.238;10.448;2023-02-13T18:25:20;8.40;99.90